Valle, Arizona
Current Conditions -  °F | °C
As of 3:54 PM on Friday 28 Nov 2014 (Local Time) from KGCN Reporting Station
Clear Clear  
Wind Chill: 64°   Ceiling: Unl
Heat Index: 64°   Visibility: 10mi
Dew Point:   Wind: 16mph
Humidity: 10%   Direction: 230°SW
Pressure: 30.13"   Gusts: 25mph
Location:  35.65°N, 112.15°W
Report Text: KGCN 282254Z 23014G22KT 10SM CLR 18/M15 A3013 RMK AO2 SLP172 T01781150
Loading
Personal Weather Stations






























Interactive Weather Map New forecast layout! Learn more

10-Day Weather Forecast

Advertisements
Track Severe Weather on mobile